createdAt,value
2017-08-19T00:00:13.238Z,89.3
2017-08-19T00:02:11.583Z,89.3
2017-08-19T00:03:11.160Z,89.2
2017-08-19T00:04:10.340Z,89.3
2017-08-19T00:05:09.908Z,89.3
2017-08-19T00:07:08.385Z,89.6
2017-08-19T00:12:04.395Z,89.6
2017-08-19T00:15:02.373Z,89.4
2017-08-19T00:17:01.323Z,89.2
2017-08-19T00:18:00.392Z,89.3
2017-08-19T00:20:58.361Z,89
2017-08-19T00:21:57.562Z,89.3
2017-08-19T00:22:56.740Z,89.3
2017-08-19T00:23:55.962Z,89.3
2017-08-19T00:24:55.162Z,88.6
2017-08-19T00:25:54.740Z,88.8
2017-08-19T00:26:53.803Z,88.5
2017-08-19T00:30:50.932Z,88.8
2017-08-19T00:31:50.114Z,88.6
2017-08-19T00:34:48.088Z,88.9
2017-08-19T00:36:46.548Z,89
2017-08-19T00:37:17.037Z,89
2017-08-19T00:39:44.794Z,88.5
2017-08-19T00:40:15.295Z,88.5
2017-08-19T00:42:42.451Z,87.8
2017-08-19T00:43:41.512Z,87.8
2017-08-19T00:44:40.592Z,88.5
2017-08-19T00:46:39.548Z,88.6
2017-08-19T00:49:37.152Z,88.5
2017-08-19T00:50:08.154Z,88.5
2017-08-19T00:50:38.178Z,88.8
2017-08-19T00:51:08.944Z,88.8
2017-08-19T00:52:35.194Z,88.9
2017-08-19T00:55:32.921Z,88.8
2017-08-19T00:56:32.105Z,89.3
2017-08-19T00:59:30.067Z,89.3
2017-08-19T01:00:29.242Z,89.1
2017-08-19T01:02:27.468Z,89.2
2017-08-19T01:03:27.168Z,88.6
2017-08-19T01:04:26.239Z,89.2
2017-08-19T01:05:25.677Z,89.3
2017-08-19T01:06:24.873Z,89.2
2017-08-19T01:09:22.733Z,89.1
2017-08-19T01:14:18.846Z,88.7
2017-08-19T01:17:16.718Z,89.1
2017-08-19T01:20:14.681Z,89.2
2017-08-19T01:25:11.080Z,89
2017-08-19T01:26:10.157Z,88.8
2017-08-19T01:27:09.360Z,88.7
2017-08-19T01:30:07.208Z,88.7
2017-08-19T01:30:37.598Z,88.7
2017-08-19T01:32:05.864Z,88.5
2017-08-19T01:35:03.602Z,88.7
2017-08-19T01:36:02.977Z,88.8
2017-08-19T01:53:49.563Z,87.5
2017-08-19T02:14:34.280Z,86.9
2017-08-19T02:16:32.749Z,87.3
2017-08-19T02:31:21.910Z,86.3
2017-08-19T02:32:21.108Z,86.4
2017-08-19T02:36:17.975Z,85.5
2017-08-19T02:36:48.478Z,85.5
2017-08-19T02:49:08.425Z,86
2017-08-19T03:18:45.916Z,85.4
2017-08-19T03:19:16.436Z,85.4
2017-08-19T04:14:04.074Z,83.4
2017-08-19T04:30:51.374Z,83.7
2017-08-19T04:31:50.455Z,83.7
2017-08-19T04:40:43.768Z,82.8
2017-08-19T04:57:31.082Z,82.7
2017-08-19T04:59:29.424Z,82.2
2017-08-19T05:02:27.171Z,82.4
2017-08-19T05:04:26.028Z,82.2
2017-08-19T05:04:56.530Z,82.2
2017-08-19T05:05:27.027Z,82.2
2017-08-19T05:05:57.408Z,82.2
2017-08-19T05:06:27.659Z,82.2
2017-08-19T05:07:23.720Z,81.7
2017-08-19T05:09:22.315Z,81.8
2017-08-19T05:10:21.495Z,81.7
2017-08-19T05:11:20.450Z,81.6
2017-08-19T05:12:19.896Z,81.5
2017-08-19T05:13:19.087Z,81.3
2017-08-19T05:14:18.159Z,81.8
2017-08-19T05:15:17.497Z,81.4
2017-08-19T05:18:15.234Z,81.3
2017-08-19T05:20:13.711Z,81.3
2017-08-19T05:21:13.287Z,81.3
2017-08-19T05:22:12.491Z,81.3
2017-08-19T05:23:11.670Z,81.3
2017-08-19T05:26:09.530Z,80.5
2017-08-19T05:27:08.732Z,80.6
2017-08-19T05:29:07.332Z,81.1
2017-08-19T05:30:06.418Z,80.3
2017-08-19T05:31:05.619Z,81.1
2017-08-19T05:32:04.844Z,80.6
2017-08-19T05:33:04.045Z,80.6
2017-08-19T05:34:03.246Z,80.5
2017-08-19T05:34:33.637Z,80.5
2017-08-19T05:35:04.035Z,80.2
2017-08-19T05:35:34.420Z,80.2
2017-08-19T05:36:04.805Z,80
2017-08-19T05:36:35.199Z,80
2017-08-19T05:38:00.472Z,79.9
2017-08-19T05:38:59.547Z,79.8
2017-08-19T05:39:59.011Z,79.8
2017-08-19T05:40:58.207Z,79.8
2017-08-19T05:41:57.401Z,80.2
2017-08-19T05:42:56.595Z,79.9
2017-08-19T05:43:55.783Z,80
2017-08-19T05:44:54.967Z,79.3
2017-08-19T05:46:53.547Z,80.1
2017-08-19T05:47:53.121Z,79.7
2017-08-19T05:49:51.076Z,80.1
2017-08-19T05:52:48.960Z,79.4
2017-08-19T05:58:44.871Z,79.3
2017-08-19T06:08:37.076Z,78.5
2017-08-19T06:10:35.297Z,79.2
2017-08-19T06:12:34.269Z,79.5
2017-08-19T06:13:33.487Z,79.7
2017-08-19T06:16:30.856Z,79.1
2017-08-19T06:18:29.426Z,79.5
2017-08-19T06:19:28.900Z,79.1
2017-08-19T06:20:27.855Z,79.4
2017-08-19T06:21:27.307Z,79.1
2017-08-19T06:22:26.645Z,78.4
2017-08-19T06:27:22.681Z,77.9
2017-08-19T06:28:22.135Z,77.7
2017-08-19T06:29:21.100Z,77.2
2017-08-19T06:30:20.678Z,77.2
2017-08-19T06:30:51.184Z,77.2
2017-08-19T06:31:21.584Z,77.3
2017-08-19T06:31:51.973Z,77.3
2017-08-19T06:33:18.227Z,76.8
2017-08-19T06:34:17.307Z,77
2017-08-19T06:36:16.166Z,75.6
2017-08-19T06:37:15.263Z,76.1
2017-08-19T06:38:14.124Z,76.2
2017-08-19T06:39:13.694Z,75.8
2017-08-19T06:40:13.031Z,75.3
2017-08-19T06:41:12.229Z,75.9
2017-08-19T06:41:42.616Z,75.9
2017-08-19T06:42:13.118Z,75.9
2017-08-19T06:42:43.502Z,75.9
2017-08-19T06:48:06.827Z,74.5
2017-08-19T06:49:06.289Z,74.3
2017-08-19T06:50:05.369Z,74.3
2017-08-19T06:51:04.954Z,74.3
2017-08-19T06:52:04.028Z,74.4
2017-08-19T06:53:03.204Z,73.8
2017-08-19T06:54:02.778Z,74
2017-08-19T06:56:00.874Z,74
2017-08-19T06:56:59.950Z,73.8
2017-08-19T06:57:59.527Z,74.3
2017-08-19T07:03:55.168Z,74.3
2017-08-19T07:05:53.632Z,74.2
2017-08-19T09:09:16.462Z,61.1
2017-08-19T09:10:15.661Z,61.9
2017-08-19T09:11:15.343Z,62.3
2017-08-19T09:12:14.338Z,61.6
2017-08-19T09:13:13.448Z,62
2017-08-19T09:14:12.752Z,61.3
2017-08-19T09:15:12.563Z,60.5
2017-08-19T09:16:11.877Z,60.8
2017-08-19T09:17:11.258Z,61.1
2017-08-19T09:18:10.453Z,59.9
2017-08-19T09:19:10.029Z,60.1
2017-08-19T09:20:09.118Z,60.1
2017-08-19T09:21:08.809Z,60.8
2017-08-19T09:23:07.148Z,60
2017-08-19T09:24:06.837Z,60.6
2017-08-19T09:26:05.416Z,61
2017-08-19T09:28:04.008Z,61.4
2017-08-19T09:29:03.084Z,61.3
2017-08-19T09:31:02.176Z,60.9
2017-08-19T09:32:01.401Z,62
2017-08-19T09:33:59.980Z,62.9
2017-08-19T09:34:59.172Z,63.6
2017-08-19T09:36:57.748Z,63.7
2017-08-19T09:57:43.584Z,59
2017-08-19T10:00:41.940Z,58
2017-08-19T10:05:38.179Z,58.6
2017-08-19T10:17:29.794Z,55.3
2017-08-19T10:18:00.177Z,55.3
2017-08-19T10:23:25.889Z,57.6
2017-08-19T10:24:25.470Z,57.3
2017-08-19T10:25:24.668Z,58.1
2017-08-19T10:27:23.515Z,56.7
2017-08-19T10:28:22.699Z,57.2
2017-08-19T10:50:08.048Z,56.1
2017-08-19T10:51:07.264Z,56.2
2017-08-19T10:56:03.891Z,55.6
2017-08-19T10:59:01.867Z,55.9
2017-08-19T11:01:00.853Z,56
2017-08-19T11:02:59.452Z,56.6
2017-08-19T11:03:58.649Z,56.5
2017-08-19T11:05:57.230Z,56.7
2017-08-19T11:31:40.652Z,52.7
2017-08-19T13:05:42.102Z,41.8
2017-08-19T13:06:41.299Z,42.8
2017-08-19T13:07:41.028Z,42.4
2017-08-19T13:19:33.769Z,42.4
2017-08-19T13:27:28.960Z,40.3
2017-08-19T13:41:21.617Z,40.9
2017-08-19T13:42:21.198Z,40.1
2017-08-19T13:43:20.272Z,41.3
2017-08-19T13:44:19.858Z,40.4
2017-08-19T13:45:19.547Z,41.2
2017-08-19T13:46:18.729Z,40.3
2017-08-19T13:47:18.310Z,41.2
2017-08-19T13:48:17.755Z,40.1
2017-08-19T13:53:14.886Z,39.1
2017-08-19T13:55:13.754Z,38.1
2017-08-19T13:56:13.442Z,38.1
2017-08-19T13:57:12.639Z,40.5
2017-08-19T13:58:12.100Z,38.7
2017-08-19T13:59:11.791Z,37.7
2017-08-19T14:03:09.537Z,37.8
2017-08-19T14:09:05.981Z,37.9
2017-08-19T14:10:05.440Z,39.9
2017-08-19T14:15:02.585Z,40
2017-08-19T14:16:02.286Z,40.4
2017-08-19T14:17:01.989Z,40.9
2017-08-19T14:18:01.195Z,40.5
2017-08-19T14:19:00.662Z,40.5
2017-08-19T14:20:00.390Z,41.4
2017-08-19T14:20:59.588Z,40.2
2017-08-19T14:21:59.158Z,39.4
2017-08-19T14:22:58.357Z,40.6
2017-08-19T14:23:58.064Z,41
2017-08-19T14:24:57.270Z,41.6
2017-08-19T14:25:56.967Z,40.9
2017-08-19T14:26:56.183Z,41.9
2017-08-19T14:27:55.650Z,41.8
2017-08-19T14:29:54.749Z,41.1
2017-08-19T14:30:54.443Z,41.3
2017-08-19T14:31:53.524Z,41.3
2017-08-19T14:40:48.721Z,40.7
2017-08-19T14:48:44.141Z,41.8
2017-08-19T14:49:43.834Z,42.5
2017-08-19T14:50:42.934Z,42.5
2017-08-19T14:51:42.632Z,42.7
2017-08-19T14:52:42.093Z,42.9
2017-08-19T14:53:41.667Z,44.3
2017-08-19T14:56:39.306Z,41.4
2017-08-19T14:57:39.007Z,41.9
2017-08-19T14:58:38.585Z,42.9
2017-08-19T14:59:38.040Z,43.5
2017-08-19T15:00:37.530Z,43
2017-08-19T15:01:36.738Z,41.7
2017-08-19T15:04:35.204Z,43
2017-08-19T15:05:34.652Z,43.2
2017-08-19T15:06:33.722Z,42.4
2017-08-19T15:07:33.432Z,43
2017-08-19T15:08:33.031Z,43
2017-08-19T15:09:32.231Z,43
2017-08-19T15:10:31.919Z,41.7
2017-08-19T15:11:31.107Z,42.4
2017-08-19T15:12:30.800Z,43.6
2017-08-19T15:13:29.753Z,43.1
2017-08-19T15:14:29.226Z,43.5
2017-08-19T15:17:27.960Z,43
2017-08-19T15:19:26.418Z,44.3
2017-08-19T15:20:26.117Z,44.8
2017-08-19T15:21:25.685Z,43.3
2017-08-19T15:23:24.150Z,44.7
2017-08-19T15:24:23.612Z,44.7
2017-08-19T15:25:23.312Z,44.9
2017-08-19T15:27:21.893Z,45.3
2017-08-19T15:28:21.465Z,45.2
2017-08-19T15:29:21.162Z,44.4
2017-08-19T15:30:20.111Z,44.8
2017-08-19T15:31:19.685Z,45.5
2017-08-19T15:33:18.768Z,45.2
2017-08-19T15:34:17.839Z,44.6
2017-08-19T15:35:17.543Z,44.2
2017-08-19T15:36:16.753Z,45
2017-08-19T15:37:16.486Z,44.3
2017-08-19T15:38:15.675Z,44.6
2017-08-19T15:39:15.268Z,45
2017-08-19T15:40:14.464Z,44.7
2017-08-19T15:41:14.027Z,44.6
2017-08-19T15:42:13.224Z,44.6
2017-08-19T15:44:12.312Z,45.4
2017-08-19T15:46:11.041Z,44.6
2017-08-19T15:47:10.241Z,44.8
2017-08-19T15:48:09.806Z,44.9
2017-08-19T15:50:08.905Z,46.7
2017-08-19T15:52:07.500Z,46.9
2017-08-19T16:02:01.473Z,47.1
2017-08-19T16:37:40.293Z,43.4
2017-08-19T16:43:36.694Z,44.3
2017-08-19T16:48:33.894Z,45.3
2017-08-19T16:55:29.316Z,45.3
2017-08-19T17:03:24.733Z,45.3
2017-08-19T17:06:23.230Z,46.1
2017-08-19T17:07:22.067Z,44.9
2017-08-19T17:11:19.928Z,46.1
2017-08-19T17:13:19.008Z,46.7
2017-08-19T17:16:16.990Z,46.6
2017-08-19T17:23:12.530Z,47.5
2017-08-19T17:24:11.988Z,48.1
2017-08-19T17:26:10.835Z,48.2
2017-08-19T17:27:10.417Z,48
2017-08-19T17:29:08.988Z,47.9
2017-08-19T17:30:08.333Z,48.9
2017-08-19T17:31:07.793Z,49.3
2017-08-19T17:32:07.130Z,48.6
2017-08-19T17:33:06.713Z,48.9
2017-08-19T17:33:37.218Z,48.9
2017-08-19T17:37:04.382Z,49.6
2017-08-19T17:41:01.740Z,48.7
2017-08-19T17:46:57.888Z,47.9
2017-08-19T17:47:57.580Z,49.6
2017-08-19T17:53:53.715Z,48.8
2017-08-19T17:54:52.672Z,49.6
2017-08-19T17:55:52.367Z,49.3
2017-08-19T17:56:51.556Z,50.4
2017-08-19T17:57:51.134Z,49
2017-08-19T17:58:50.324Z,49
2017-08-19T17:59:49.787Z,50.1
2017-08-19T18:00:49.487Z,49.5
2017-08-19T18:01:48.331Z,49.4
2017-08-19T18:02:47.930Z,50.5
2017-08-19T18:03:47.636Z,50.3
2017-08-19T18:04:46.720Z,50.5
2017-08-19T18:05:46.424Z,50
2017-08-19T18:06:45.628Z,50.2
2017-08-19T18:07:44.814Z,50.5
2017-08-19T18:08:44.509Z,50.4
2017-08-19T18:09:43.474Z,50.3
2017-08-19T18:11:42.432Z,50.4
2017-08-19T18:12:42.019Z,50.4
2017-08-19T18:13:41.512Z,50.6
2017-08-19T18:14:40.346Z,51.9
2017-08-19T18:15:39.796Z,50.9
2017-08-19T18:16:39.380Z,50.7
2017-08-19T18:17:38.565Z,51
2017-08-19T18:18:37.791Z,50.5
2017-08-19T18:19:37.502Z,51.7
2017-08-19T18:20:07.666Z,51.7
2017-08-19T18:20:38.673Z,51.4
2017-08-19T18:21:36.355Z,50.7
2017-08-19T18:22:35.193Z,51.2
2017-08-19T18:24:34.175Z,51.6
2017-08-19T18:25:33.863Z,51.5
2017-08-19T18:26:33.059Z,51.5
2017-08-19T18:27:32.265Z,51.8
2017-08-19T18:28:31.966Z,51.8
2017-08-19T18:29:30.930Z,51.8
2017-08-19T18:30:30.398Z,51.5
2017-08-19T18:31:29.736Z,52.1
2017-08-19T18:32:29.443Z,51.9
2017-08-19T18:33:28.632Z,52.2
2017-08-19T18:34:27.588Z,52.3
2017-08-19T18:35:27.167Z,52.2
2017-08-19T18:36:26.627Z,52.5
2017-08-19T18:37:25.815Z,51.9
2017-08-19T18:38:25.398Z,53.2
2017-08-19T18:39:24.596Z,52.4
2017-08-19T18:40:24.175Z,52.6
2017-08-19T18:41:23.624Z,52.4
2017-08-19T18:43:22.204Z,53.8
2017-08-19T18:44:21.662Z,53.1
2017-08-19T18:45:20.756Z,53.5
2017-08-19T18:46:20.330Z,53.5
2017-08-19T18:47:19.516Z,53.5
2017-08-19T18:48:19.099Z,53
2017-08-19T18:49:18.302Z,53.7
2017-08-19T18:50:17.999Z,53.7
2017-08-19T18:51:17.071Z,53.8
2017-08-19T18:52:16.270Z,54.4
2017-08-19T18:53:15.843Z,53.6
2017-08-19T18:54:15.034Z,54.1
2017-08-19T18:55:14.738Z,52.7
2017-08-19T18:56:14.085Z,53.5
2017-08-19T18:57:13.280Z,53.4
2017-08-19T18:58:12.477Z,53.2
2017-08-19T18:59:11.823Z,53.2
2017-08-19T19:00:11.523Z,54.7
2017-08-19T19:00:42.038Z,54.7
2017-08-19T19:02:09.805Z,54.1
2017-08-19T19:03:09.505Z,54.9
2017-08-19T19:04:08.708Z,54.2
2017-08-19T19:05:08.401Z,54.2
2017-08-19T19:06:07.479Z,54.4
2017-08-19T19:07:06.676Z,53.9
2017-08-19T19:08:06.248Z,54.4
2017-08-19T19:09:05.342Z,54
2017-08-19T19:10:04.928Z,54.3
2017-08-19T19:11:04.389Z,54.4
2017-08-19T19:12:03.466Z,54.1
2017-08-19T19:13:03.049Z,55
2017-08-19T19:14:02.248Z,54.3
2017-08-19T19:14:32.754Z,54.3
2017-08-19T19:16:01.148Z,53.8
2017-08-19T19:17:00.611Z,54.1
2017-08-19T19:18:59.195Z,54.2
2017-08-19T19:19:58.376Z,54.3
2017-08-19T19:20:58.081Z,53.7
2017-08-19T19:21:57.273Z,54.3
2017-08-19T19:22:56.841Z,54.3
2017-08-19T19:23:56.042Z,54.3
2017-08-19T19:24:55.107Z,53.6
2017-08-19T19:25:54.818Z,54.6
2017-08-19T19:26:54.014Z,55
2017-08-19T19:27:53.206Z,55.5
2017-08-19T19:28:52.916Z,54.5
2017-08-19T19:29:52.138Z,54.4
2017-08-19T19:30:51.327Z,55.4
2017-08-19T19:31:51.021Z,54.9
2017-08-19T19:32:50.091Z,54.8
2017-08-19T19:33:50.660Z,55.6
2017-08-19T19:35:48.278Z,55.1
2017-08-19T19:36:47.477Z,55.6
2017-08-19T19:37:46.991Z,55.5
2017-08-19T19:38:46.055Z,56.2
2017-08-19T19:39:45.517Z,56.3
2017-08-19T19:40:44.968Z,56.3
2017-08-19T19:41:43.916Z,56.3
2017-08-19T19:42:43.496Z,56.4
2017-08-19T19:43:43.073Z,55.7
2017-08-19T19:44:42.547Z,56.3
2017-08-19T19:45:41.627Z,57.2
2017-08-19T19:46:40.862Z,56.9
2017-08-19T19:47:40.206Z,57.8
2017-08-19T19:48:39.675Z,58.1
2017-08-19T19:49:39.259Z,57.4
2017-08-19T19:50:38.219Z,57.8
2017-08-19T19:51:37.933Z,58.2
2017-08-19T19:52:36.886Z,58
2017-08-19T19:53:36.580Z,58.2
2017-08-19T19:54:35.776Z,58.6
2017-08-19T19:55:06.279Z,58.6
2017-08-19T19:55:36.656Z,59.4
2017-08-19T19:56:34.846Z,59.2
2017-08-19T19:57:34.044Z,59.1
2017-08-19T19:58:33.249Z,59.1
2017-08-19T19:59:32.839Z,59.1
2017-08-19T20:00:32.032Z,58.4
2017-08-19T20:01:30.998Z,58.3
2017-08-19T20:02:30.472Z,58.4
2017-08-19T20:03:29.927Z,58.4
2017-08-19T20:04:29.262Z,59.3
2017-08-19T20:05:28.721Z,58.1
2017-08-19T20:06:27.918Z,58.9
2017-08-19T20:07:27.266Z,59.4
2017-08-19T20:08:26.721Z,59.5
2017-08-19T20:09:25.927Z,60.1
2017-08-19T20:10:25.514Z,59.9
2017-08-19T20:11:24.709Z,59.7
2017-08-19T20:12:23.897Z,59.2
2017-08-19T20:13:23.470Z,59.6
2017-08-19T20:14:22.532Z,59.7
2017-08-19T20:15:22.104Z,60
2017-08-19T20:16:21.303Z,60
2017-08-19T20:17:20.878Z,60
2017-08-19T20:18:20.087Z,59
2017-08-19T20:19:19.674Z,59.7
2017-08-19T20:20:18.876Z,59.8
2017-08-19T20:21:17.953Z,59.3
2017-08-19T20:22:17.534Z,59.7
2017-08-19T20:23:16.887Z,59.7
2017-08-19T20:24:15.848Z,59.8
2017-08-19T20:25:15.437Z,59.4
2017-08-19T20:26:14.390Z,59.3
2017-08-19T20:27:13.855Z,59.3
2017-08-19T20:28:13.328Z,60.1
2017-08-19T20:29:12.795Z,59.4
2017-08-19T20:30:12.038Z,59.5
2017-08-19T20:31:11.739Z,59.4
2017-08-19T20:32:10.946Z,59.4
2017-08-19T20:33:10.016Z,59.4
2017-08-19T20:34:09.701Z,59.5
2017-08-19T20:35:08.666Z,59.5
2017-08-19T20:36:08.238Z,59.3
2017-08-19T20:37:07.314Z,59.5
2017-08-19T20:38:07.020Z,59.7
2017-08-19T20:39:05.974Z,59.4
2017-08-19T20:40:05.673Z,59.6
2017-08-19T20:41:05.139Z,60.3
2017-08-19T20:42:04.213Z,60.3
2017-08-19T20:43:03.288Z,60
2017-08-19T20:44:02.996Z,59.9
2017-08-19T20:45:01.875Z,60.4
2017-08-19T20:46:01.468Z,60.7
2017-08-19T20:47:01.185Z,60.7
2017-08-19T20:48:00.517Z,59.7
2017-08-19T20:48:59.477Z,59.9
2017-08-19T20:49:58.934Z,59.6
2017-08-19T20:50:29.331Z,59.6
2017-08-19T20:50:59.604Z,59.5
2017-08-19T20:52:56.938Z,59.9
2017-08-19T20:53:56.134Z,59.9
2017-08-19T20:54:55.830Z,59.4
2017-08-19T20:55:55.046Z,60.4
2017-08-19T20:56:54.011Z,59.8
2017-08-19T20:57:53.592Z,60
2017-08-19T20:58:52.949Z,59.8
2017-08-19T20:59:52.054Z,59.6
2017-08-19T21:00:51.545Z,59.7
2017-08-19T21:01:50.750Z,59.4
2017-08-19T21:02:50.208Z,60
2017-08-19T21:03:49.273Z,60.6
2017-08-19T21:04:48.852Z,60.6
2017-08-19T21:05:48.038Z,60.9
2017-08-19T21:06:47.722Z,59.9
2017-08-19T21:07:46.800Z,59.9
2017-08-19T21:08:46.499Z,60.1
2017-08-19T21:09:45.571Z,59.7
2017-08-19T21:10:45.150Z,59.7
2017-08-19T21:11:44.226Z,59.7
2017-08-19T21:12:44.001Z,60.7
2017-08-19T21:13:42.690Z,60.2
2017-08-19T21:14:42.374Z,60.6
2017-08-19T21:15:41.576Z,60.6
2017-08-19T21:16:40.525Z,60.2
2017-08-19T21:17:39.750Z,60.2
2017-08-19T21:18:39.328Z,61
2017-08-19T21:19:38.945Z,60.7
2017-08-19T21:20:38.153Z,60.9
2017-08-19T21:21:37.121Z,60.7
2017-08-19T21:23:36.089Z,61.1
2017-08-19T21:24:35.669Z,60.9
2017-08-19T21:25:34.763Z,61.3
2017-08-19T21:26:33.960Z,61
2017-08-19T21:29:31.800Z,61
2017-08-19T21:30:31.385Z,61.3
2017-08-19T21:31:30.721Z,61.7
2017-08-19T21:32:29.936Z,60.8
2017-08-19T21:33:29.528Z,60.9
2017-08-19T21:34:28.544Z,61.6
2017-08-19T21:35:27.988Z,61.6
2017-08-19T21:36:27.573Z,61.3
2017-08-19T21:37:26.659Z,60.9
2017-08-19T21:38:25.850Z,61.9
2017-08-19T21:39:25.544Z,61.9
2017-08-19T21:41:24.006Z,61.7
2017-08-19T21:42:23.576Z,61.5
2017-08-19T21:43:22.650Z,61.5
2017-08-19T21:45:21.135Z,61.6
2017-08-19T21:46:20.821Z,61.6
2017-08-19T21:48:19.293Z,61.9
2017-08-19T21:49:18.381Z,61.9
2017-08-19T21:50:18.122Z,62.2
2017-08-19T21:51:17.198Z,62.4
2017-08-19T21:53:15.674Z,62.8
2017-08-19T21:54:15.241Z,62.8
2017-08-19T21:55:14.323Z,62.6
2017-08-19T21:56:13.905Z,63.2
2017-08-19T21:57:12.872Z,62.8
2017-08-19T21:58:12.454Z,62.9
2017-08-19T21:59:11.651Z,63.4
2017-08-19T22:00:11.227Z,63.2
2017-08-19T22:01:10.423Z,63.3
2017-08-19T22:02:09.493Z,63.2
2017-08-19T22:03:09.071Z,62.8
2017-08-19T22:04:08.265Z,62.7
2017-08-19T22:05:07.328Z,62.7
2017-08-19T22:06:06.901Z,62.7
2017-08-19T22:07:06.093Z,63.2
2017-08-19T22:08:05.669Z,63.4
2017-08-19T22:09:04.734Z,63.2
2017-08-19T22:10:04.336Z,63.2
2017-08-19T22:11:03.535Z,63.3
2017-08-19T22:12:02.988Z,63.2
2017-08-19T22:13:02.068Z,63.4
2017-08-19T22:14:01.149Z,63.3
2017-08-19T22:15:00.724Z,63.5
2017-08-19T22:16:00.297Z,63.6
2017-08-19T22:16:59.372Z,63.2
2017-08-19T22:17:58.449Z,63.5
2017-08-19T22:18:58.145Z,63.4
2017-08-19T22:19:57.217Z,62.9
2017-08-19T22:20:56.300Z,63.4
2017-08-19T22:21:26.689Z,63.4
2017-08-19T22:21:57.079Z,63.4
2017-08-19T22:22:55.178Z,63.4
2017-08-19T22:23:54.522Z,63.8
2017-08-19T22:24:53.726Z,63
2017-08-19T22:25:53.309Z,63.4
2017-08-19T22:26:52.378Z,63.6
2017-08-19T22:27:52.065Z,63.7
2017-08-19T22:28:51.126Z,63.8
2017-08-19T22:29:50.301Z,64
2017-08-19T22:32:48.152Z,64.4
2017-08-19T22:33:47.724Z,64
2017-08-19T22:34:46.692Z,64.1
2017-08-19T22:35:46.149Z,64.3
2017-08-19T22:36:45.857Z,64.5
2017-08-19T22:38:44.112Z,64.6
2017-08-19T22:39:43.195Z,64.3
2017-08-19T22:40:42.643Z,64.3
2017-08-19T22:41:42.218Z,64.3
2017-08-19T22:42:41.412Z,65.1
2017-08-19T22:43:40.372Z,65.1
2017-08-19T22:44:39.818Z,65.1
2017-08-19T22:45:39.282Z,64.8
2017-08-19T22:46:38.491Z,65.1
2017-08-19T22:47:38.059Z,65.1
2017-08-19T22:48:37.265Z,65.4
2017-08-19T22:49:36.350Z,65.4
2017-08-19T22:50:35.932Z,65.4
2017-08-19T22:51:35.153Z,66.1
2017-08-19T22:52:34.725Z,65.5
2017-08-19T22:53:33.925Z,65.7
2017-08-19T22:54:04.191Z,65.7
2017-08-19T22:54:34.578Z,65.6
2017-08-19T22:56:31.422Z,65.7
2017-08-19T22:57:30.991Z,66.3
2017-08-19T22:58:30.046Z,66.3
2017-08-19T22:59:29.488Z,66.3
2017-08-19T23:00:29.050Z,66.5
2017-08-19T23:01:28.119Z,66.9
2017-08-19T23:02:27.322Z,66.7
2017-08-19T23:03:26.759Z,66.6
2017-08-19T23:04:25.939Z,66.4
2017-08-19T23:05:25.619Z,66.6
2017-08-19T23:06:24.689Z,66.5
2017-08-19T23:07:23.868Z,66.8
2017-08-19T23:08:22.809Z,66.4
2017-08-19T23:09:22.635Z,66.9
2017-08-19T23:10:21.685Z,67.2
2017-08-19T23:11:21.241Z,67.1
2017-08-19T23:12:20.070Z,67
2017-08-19T23:13:19.521Z,67
2017-08-19T23:14:19.078Z,67.4
2017-08-19T23:15:18.146Z,67.5
2017-08-19T23:17:17.094Z,67.7
2017-08-19T23:18:16.270Z,67.8
2017-08-19T23:19:15.208Z,68
2017-08-19T23:20:14.767Z,67.5
2017-08-19T23:22:13.218Z,67.8
2017-08-19T23:23:12.899Z,67.5
2017-08-19T23:24:12.083Z,67.9
2017-08-19T23:25:11.408Z,68.1
2017-08-19T23:26:10.477Z,68
2017-08-19T23:27:09.923Z,68.1
2017-08-19T23:28:09.106Z,68
2017-08-19T23:29:08.281Z,68.1
2017-08-19T23:30:07.960Z,68.3
2017-08-19T23:31:06.919Z,68.2
2017-08-19T23:32:06.603Z,68.4
2017-08-19T23:33:05.784Z,68.6
2017-08-19T23:34:04.978Z,68.6
2017-08-19T23:35:04.163Z,68.6
2017-08-19T23:36:03.217Z,68.6
2017-08-19T23:37:02.782Z,68.6
2017-08-19T23:39:01.240Z,69.1
2017-08-19T23:40:00.917Z,69.3
2017-08-19T23:40:59.975Z,69.2
2017-08-19T23:41:59.156Z,69
2017-08-19T23:42:58.340Z,69.1
2017-08-19T23:43:57.903Z,69.6
2017-08-19T23:44:56.960Z,69.5
2017-08-19T23:45:56.646Z,69.7
2017-08-19T23:46:55.583Z,69.9
2017-08-19T23:47:54.639Z,69.8
2017-08-19T23:48:54.075Z,70
2017-08-19T23:49:53.760Z,70.1
2017-08-19T23:50:52.939Z,70.3
2017-08-19T23:51:52.121Z,70.4
2017-08-19T23:52:51.182Z,70.4
2017-08-19T23:53:50.627Z,70.3
2017-08-19T23:54:49.811Z,70.5
2017-08-19T23:55:49.495Z,70.5
2017-08-19T23:58:46.683Z,70.5
